createdAt,value
2023-12-17T00:02:15.230Z,8.50
2023-12-17T00:07:14.871Z,9.40
2023-12-17T00:12:14.891Z,9.50
2023-12-17T00:17:14.744Z,9.60
2023-12-17T00:22:14.752Z,12.20
2023-12-17T00:27:14.714Z,8.80
2023-12-17T00:32:14.551Z,9.00
2023-12-17T00:37:14.444Z,10.30
2023-12-17T00:42:14.452Z,8.40
2023-12-17T00:47:14.336Z,8.50
2023-12-17T00:52:14.262Z,8.40
2023-12-17T00:57:14.241Z,10.40
2023-12-17T01:02:14.152Z,11.50
2023-12-17T01:07:14.072Z,8.80
2023-12-17T01:12:14.062Z,8.90
2023-12-17T01:17:13.929Z,9.70
2023-12-17T01:22:13.867Z,9.00
2023-12-17T01:27:14.010Z,7.90
2023-12-17T01:32:13.724Z,9.10
2023-12-17T01:37:13.641Z,8.20
2023-12-17T01:42:13.668Z,9.20
2023-12-17T01:47:13.505Z,11.70
2023-12-17T01:52:13.439Z,9.10
2023-12-17T01:57:13.421Z,6.60
2023-12-17T02:02:13.299Z,8.90
2023-12-17T02:07:13.280Z,7.90
2023-12-17T02:12:13.192Z,8.50
2023-12-17T02:17:13.136Z,8.30
2023-12-17T02:22:13.079Z,8.50
2023-12-17T02:27:13.038Z,8.20
2023-12-17T02:32:12.955Z,9.70
2023-12-17T02:37:12.874Z,9.70
2023-12-17T02:42:12.902Z,9.70
2023-12-17T02:47:12.772Z,7.60
2023-12-17T02:52:12.698Z,8.60
2023-12-17T02:57:12.668Z,7.60
2023-12-17T03:02:12.573Z,9.00
2023-12-17T03:07:12.511Z,11.10
2023-12-17T03:12:12.499Z,7.70
2023-12-17T03:17:12.461Z,8.30
2023-12-17T03:22:12.313Z,8.20
2023-12-17T03:27:12.375Z,8.70
2023-12-17T03:32:12.193Z,9.30
2023-12-17T03:37:12.100Z,8.20
2023-12-17T03:42:12.068Z,10.60
2023-12-17T03:47:11.964Z,7.70
2023-12-17T03:52:11.917Z,9.10
2023-12-17T03:57:11.939Z,7.80
2023-12-17T04:02:11.828Z,8.50
2023-12-17T04:07:11.685Z,8.00
2023-12-17T04:12:11.711Z,8.30
2023-12-17T04:17:11.552Z,10.20
2023-12-17T04:22:11.497Z,7.50
2023-12-17T04:27:11.701Z,9.10
2023-12-17T04:32:11.341Z,8.20
2023-12-17T04:37:11.275Z,8.10
2023-12-17T04:42:11.233Z,10.50
2023-12-17T04:47:11.203Z,8.80
2023-12-17T04:52:11.095Z,7.90
2023-12-17T04:57:11.109Z,6.60
2023-12-17T05:02:10.982Z,9.00
2023-12-17T05:07:10.880Z,10.80
2023-12-17T05:12:10.900Z,7.60
2023-12-17T05:17:10.731Z,10.40
2023-12-17T05:22:10.736Z,10.60
2023-12-17T05:27:10.740Z,9.20
2023-12-17T05:32:10.603Z,9.80
2023-12-17T05:37:10.516Z,11.00
2023-12-17T05:42:10.508Z,9.50
2023-12-17T05:47:10.377Z,9.40
2023-12-17T05:52:10.337Z,10.70
2023-12-17T05:57:10.268Z,10.70
2023-12-17T06:02:10.223Z,12.50
2023-12-17T06:07:10.155Z,10.60
2023-12-17T06:12:10.223Z,10.70
2023-12-17T06:17:10.078Z,12.00
2023-12-17T06:22:09.958Z,9.20
2023-12-17T06:27:09.890Z,10.40
2023-12-17T06:32:10.649Z,13.80
2023-12-17T06:37:09.745Z,12.00
2023-12-17T06:42:09.736Z,10.00
2023-12-17T06:47:18.115Z,10.10
2023-12-17T06:52:10.628Z,12.70
2023-12-17T06:57:09.473Z,10.80
2023-12-17T07:02:09.413Z,13.90
2023-12-17T07:07:09.326Z,13.10
2023-12-17T07:12:09.303Z,14.40
2023-12-17T07:17:09.236Z,14.70
2023-12-17T07:22:09.229Z,11.90
2023-12-17T07:27:09.172Z,13.70
2023-12-17T07:32:09.060Z,13.60
2023-12-17T07:37:08.959Z,12.50
2023-12-17T07:42:08.926Z,11.90
2023-12-17T07:47:08.935Z,11.80
2023-12-17T07:52:08.725Z,12.50
2023-12-17T07:57:08.675Z,12.80
2023-12-17T08:02:09.205Z,15.10
2023-12-17T08:07:08.656Z,12.20
2023-12-17T08:12:08.676Z,12.20
2023-12-17T08:17:08.408Z,15.50
2023-12-17T08:22:08.539Z,14.60
2023-12-17T08:27:08.368Z,12.40
2023-12-17T08:32:08.204Z,13.10
2023-12-17T08:37:08.107Z,16.10
2023-12-17T08:42:08.968Z,15.90
2023-12-17T08:47:07.984Z,16.70
2023-12-17T08:52:07.971Z,14.80
2023-12-17T08:57:07.958Z,12.20
2023-12-17T09:02:09.105Z,12.80
2023-12-17T09:07:07.721Z,13.30
2023-12-17T09:12:07.712Z,13.70
2023-12-17T09:17:07.625Z,15.00
2023-12-17T09:22:07.533Z,11.50
2023-12-17T09:27:07.509Z,12.70
2023-12-17T09:32:07.409Z,14.00
2023-12-17T09:37:07.336Z,15.00
2023-12-17T09:42:07.305Z,16.50
2023-12-17T09:47:07.213Z,15.40
2023-12-17T09:52:07.155Z,14.10
2023-12-17T09:57:07.116Z,15.90
2023-12-17T10:02:07.033Z,13.30
2023-12-17T10:07:06.936Z,15.70
2023-12-17T10:12:07.009Z,17.80
2023-12-17T10:17:06.807Z,14.70
2023-12-17T10:22:06.728Z,14.50
2023-12-17T10:27:06.714Z,14.90
2023-12-17T10:32:06.648Z,17.70
2023-12-17T10:37:06.570Z,15.10
2023-12-17T10:42:06.574Z,17.80
2023-12-17T10:47:06.433Z,14.50
2023-12-17T10:52:06.413Z,15.00
2023-12-17T10:57:06.287Z,14.70
2023-12-17T11:02:06.194Z,13.20
2023-12-17T11:07:06.135Z,13.70
2023-12-17T11:12:06.170Z,13.50
2023-12-17T11:17:06.031Z,11.90
2023-12-17T11:22:06.100Z,10.10
2023-12-17T11:27:05.962Z,11.10
2023-12-17T11:32:05.812Z,11.10
2023-12-17T11:37:05.755Z,11.60
2023-12-17T11:42:05.715Z,12.60
2023-12-17T11:47:05.633Z,15.70
2023-12-17T11:52:05.555Z,11.60
2023-12-17T11:57:05.498Z,10.30
2023-12-17T12:02:05.424Z,11.80
2023-12-17T12:07:05.334Z,9.80
2023-12-17T12:12:05.272Z,12.30
2023-12-17T12:17:05.483Z,11.60
2023-12-17T12:22:05.180Z,9.40
2023-12-17T12:27:05.184Z,10.00
2023-12-17T12:32:05.007Z,9.60
2023-12-17T12:37:04.958Z,9.50
2023-12-17T12:42:04.926Z,9.60
2023-12-17T12:47:04.814Z,9.90
2023-12-17T12:52:04.754Z,9.60
2023-12-17T12:57:04.799Z,11.00
2023-12-17T13:02:04.617Z,10.40
2023-12-17T13:07:04.656Z,9.90
2023-12-17T13:12:04.567Z,11.20
2023-12-17T13:17:04.415Z,13.00
2023-12-17T13:22:04.386Z,10.30
2023-12-17T13:27:04.311Z,12.80
2023-12-17T13:32:04.223Z,12.40
2023-12-17T13:42:04.143Z,10.40
2023-12-17T13:47:04.101Z,13.00
2023-12-17T13:52:03.964Z,10.50
2023-12-17T13:57:03.921Z,10.10
2023-12-17T14:02:03.819Z,10.90
2023-12-17T14:07:03.754Z,12.00
2023-12-17T14:12:03.697Z,13.00
2023-12-17T14:17:03.627Z,10.70
2023-12-17T14:22:03.547Z,9.10
2023-12-17T14:27:03.613Z,10.80
2023-12-17T14:32:03.400Z,12.90
2023-12-17T14:37:03.362Z,9.10
2023-12-17T14:42:03.332Z,9.60
2023-12-17T14:47:03.555Z,11.00
2023-12-17T14:52:03.441Z,12.00
2023-12-17T14:57:03.459Z,13.20
2023-12-17T15:02:03.023Z,13.50
2023-12-17T15:07:02.961Z,11.80
2023-12-17T15:12:02.926Z,12.80
2023-12-17T15:17:03.116Z,13.40
2023-12-17T15:22:02.731Z,13.30
2023-12-17T15:27:02.781Z,13.50
2023-12-17T15:32:02.957Z,15.50
2023-12-17T15:37:02.548Z,13.40
2023-12-17T15:42:02.476Z,12.90
2023-12-17T15:47:02.692Z,14.80
2023-12-17T15:52:02.309Z,14.20
2023-12-17T15:57:02.327Z,15.60
2023-12-17T16:02:02.180Z,13.60
2023-12-17T16:07:02.176Z,15.30
2023-12-17T16:12:02.212Z,18.30
2023-12-17T16:17:02.018Z,15.20
2023-12-17T16:22:01.953Z,20.50
2023-12-17T16:27:01.952Z,17.10
2023-12-17T16:32:01.882Z,23.00
2023-12-17T16:37:01.746Z,17.10
2023-12-17T16:42:01.691Z,19.00
2023-12-17T16:47:01.630Z,18.10
2023-12-17T16:52:01.576Z,16.80
2023-12-17T16:57:01.604Z,19.00
2023-12-17T17:02:01.491Z,17.10
2023-12-17T17:07:01.359Z,18.70
2023-12-17T17:12:01.295Z,17.00
2023-12-17T17:17:01.252Z,18.70
2023-12-17T17:22:01.168Z,17.60
2023-12-17T17:27:01.183Z,16.60
2023-12-17T17:32:01.035Z,21.90
2023-12-17T17:37:01.114Z,19.50
2023-12-17T17:42:00.895Z,15.90
2023-12-17T17:47:00.795Z,17.60
2023-12-17T17:52:00.769Z,21.80
2023-12-17T17:57:00.693Z,19.80
2023-12-17T18:02:00.644Z,20.30
2023-12-17T18:07:00.561Z,22.90
2023-12-17T18:12:00.549Z,26.60
2023-12-17T18:17:00.415Z,21.70
2023-12-17T18:22:00.323Z,20.70
2023-12-17T18:27:00.408Z,23.80
2023-12-17T18:32:00.220Z,22.50
2023-12-17T18:37:00.206Z,27.20
2023-12-17T18:42:01.106Z,22.20
2023-12-17T18:47:00.347Z,24.40
2023-12-17T18:51:59.912Z,23.20
2023-12-17T18:56:59.994Z,26.70
2023-12-17T19:02:01.252Z,28.60
2023-12-17T19:06:59.777Z,26.20
2023-12-17T19:11:59.667Z,30.10
2023-12-17T19:16:59.642Z,29.90
2023-12-17T19:21:59.595Z,23.40
2023-12-17T19:26:59.508Z,26.00
2023-12-17T19:31:59.457Z,28.50
2023-12-17T19:36:59.383Z,26.20
2023-12-17T19:41:59.400Z,28.40
2023-12-17T19:46:59.222Z,26.50
2023-12-17T19:51:59.188Z,26.00
2023-12-17T19:57:00.034Z,27.10
2023-12-17T20:01:59.220Z,27.70
2023-12-17T20:06:59.251Z,27.40
2023-12-17T20:11:58.925Z,25.90
2023-12-17T20:16:58.868Z,25.40
2023-12-17T20:21:58.781Z,26.50
2023-12-17T20:26:58.749Z,28.40
2023-12-17T20:31:58.654Z,27.90
2023-12-17T20:36:58.607Z,27.10
2023-12-17T20:41:59.423Z,26.00
2023-12-17T20:46:58.714Z,27.30
2023-12-17T20:51:59.614Z,28.40
2023-12-17T20:56:58.532Z,27.80
2023-12-17T21:01:58.881Z,25.60
2023-12-17T21:06:58.177Z,26.80
2023-12-17T21:11:58.165Z,29.30
2023-12-17T21:16:58.074Z,25.60
2023-12-17T21:21:57.973Z,29.30
2023-12-17T21:26:58.619Z,27.60
2023-12-17T21:31:57.859Z,27.20
2023-12-17T21:36:57.838Z,26.90
2023-12-17T21:41:57.748Z,27.30
2023-12-17T21:46:57.685Z,26.20
2023-12-17T21:51:57.591Z,32.30
2023-12-17T21:57:16.936Z,29.30
2023-12-17T22:01:58.461Z,24.30
2023-12-17T22:06:57.381Z,24.40
2023-12-17T22:11:57.435Z,22.50
2023-12-17T22:16:57.355Z,26.70
2023-12-17T22:21:57.378Z,29.80
2023-12-17T22:26:57.161Z,25.40
2023-12-17T22:31:57.170Z,26.50
2023-12-17T22:36:57.056Z,28.70
2023-12-17T22:41:56.969Z,26.00
2023-12-17T22:46:56.880Z,22.70
2023-12-17T22:51:56.796Z,23.10
2023-12-17T22:56:57.438Z,20.90
2023-12-17T23:01:56.626Z,16.50
2023-12-17T23:06:56.600Z,17.60
2023-12-17T23:11:56.546Z,14.80
2023-12-17T23:16:56.697Z,14.20
2023-12-17T23:21:56.417Z,12.00
2023-12-17T23:26:56.330Z,16.20
2023-12-17T23:31:56.267Z,12.90
2023-12-17T23:36:57.196Z,15.40
2023-12-17T23:41:56.173Z,15.70
2023-12-17T23:46:56.132Z,16.50
2023-12-17T23:51:56.027Z,16.60
2023-12-17T23:56:56.166Z,18.30
